createdAt,value
2018-11-23T00:00:34.518Z,24.73
2018-11-23T00:03:03.944Z,26.83
2018-11-23T00:05:33.578Z,24.50
2018-11-23T00:08:03.520Z,25.07
2018-11-23T00:10:34.168Z,23.37
2018-11-23T00:13:03.800Z,23.87
2018-11-23T00:15:33.305Z,25.33
2018-11-23T00:18:03.156Z,23.50
2018-11-23T00:20:32.677Z,19.77
2018-11-23T00:23:02.719Z,20.50
2018-11-23T00:25:32.264Z,21.73
2018-11-23T00:28:01.823Z,23.47
2018-11-23T00:30:31.583Z,21.07
2018-11-23T00:33:00.925Z,19.50
2018-11-23T00:35:31.222Z,20.70
2018-11-23T00:38:00.955Z,20.70
2018-11-23T00:40:31.936Z,19.73
2018-11-23T00:43:02.019Z,20.77
2018-11-23T00:45:31.955Z,25.13
2018-11-23T00:48:01.862Z,23.33
2018-11-23T00:50:31.549Z,21.60
2018-11-23T00:53:01.509Z,18.87
2018-11-23T00:55:31.308Z,19.10
2018-11-23T00:58:01.103Z,18.10
2018-11-23T01:00:31.845Z,18.37
2018-11-23T01:03:02.403Z,16.70
2018-11-23T01:05:32.029Z,17.37
2018-11-23T01:08:02.211Z,15.33
2018-11-23T01:10:31.929Z,16.33
2018-11-23T01:13:01.540Z,16.73
2018-11-23T01:15:31.126Z,17.93
2018-11-23T01:18:00.649Z,18.03
2018-11-23T01:20:30.292Z,17.47
2018-11-23T01:22:59.860Z,16.93
2018-11-23T01:25:29.697Z,17.37
2018-11-23T01:27:59.592Z,14.60
2018-11-23T01:30:30.212Z,16.63
2018-11-23T01:32:59.602Z,15.43
2018-11-23T01:35:29.234Z,15.73
2018-11-23T01:37:58.841Z,14.07
2018-11-23T01:40:30.185Z,15.70
2018-11-23T01:43:00.206Z,15.53
2018-11-23T01:45:30.027Z,14.63
2018-11-23T01:47:59.427Z,15.00
2018-11-23T01:50:30.340Z,12.83
2018-11-23T01:53:00.162Z,14.83
2018-11-23T01:55:29.580Z,16.40
2018-11-23T01:57:58.994Z,14.57
2018-11-23T02:00:29.142Z,15.13
2018-11-23T02:02:58.949Z,14.77
2018-11-23T02:05:28.472Z,14.87
2018-11-23T02:07:58.048Z,13.77
2018-11-23T02:10:27.769Z,14.47
2018-11-23T02:12:57.187Z,13.57
2018-11-23T02:15:33.942Z,13.10
2018-11-23T02:18:03.816Z,14.03
2018-11-23T02:20:33.546Z,14.63
2018-11-23T02:23:03.487Z,12.17
2018-11-23T02:25:33.067Z,12.33
2018-11-23T02:28:02.389Z,13.10
2018-11-23T02:30:31.795Z,13.27
2018-11-23T02:33:01.076Z,13.70
2018-11-23T02:35:30.350Z,13.63
2018-11-23T02:38:00.065Z,14.37
2018-11-23T02:40:29.640Z,14.63
2018-11-23T02:42:59.239Z,14.20
2018-11-23T02:45:29.238Z,13.70
2018-11-23T02:47:58.810Z,14.23
2018-11-23T02:50:28.553Z,14.93
2018-11-23T02:52:58.138Z,15.43
2018-11-23T02:55:27.648Z,16.63
2018-11-23T02:57:57.307Z,15.67
2018-11-23T03:00:26.679Z,16.07
2018-11-23T03:02:55.923Z,14.23
2018-11-23T03:05:25.607Z,16.97
2018-11-23T03:07:54.983Z,16.23
2018-11-23T03:10:24.871Z,13.83
2018-11-23T03:12:54.249Z,15.80
2018-11-23T03:15:23.691Z,12.93
2018-11-23T03:17:53.570Z,12.90
2018-11-23T03:20:23.546Z,15.10
2018-11-23T03:22:53.055Z,13.60
2018-11-23T03:25:22.591Z,15.13
2018-11-23T03:27:53.824Z,14.17
2018-11-23T03:30:23.921Z,13.30
2018-11-23T03:32:54.330Z,13.93
2018-11-23T03:35:23.969Z,16.80
2018-11-23T03:37:53.529Z,17.57
2018-11-23T03:40:23.047Z,17.10
2018-11-23T03:42:52.677Z,15.17
2018-11-23T03:45:22.081Z,14.00
2018-11-23T03:47:51.709Z,15.47
2018-11-23T03:50:21.094Z,15.83
2018-11-23T03:52:50.802Z,15.07
2018-11-23T03:55:20.717Z,17.23
2018-11-23T03:57:50.520Z,18.00
2018-11-23T04:00:21.784Z,22.40
2018-11-23T04:02:51.620Z,21.63
2018-11-23T04:05:21.107Z,22.37
2018-11-23T04:07:50.818Z,20.40
2018-11-23T04:10:20.394Z,20.30
2018-11-23T04:12:49.911Z,20.23
2018-11-23T04:15:19.770Z,20.93
2018-11-23T04:17:49.476Z,20.10
2018-11-23T04:20:19.150Z,17.80
2018-11-23T04:22:49.363Z,19.17
2018-11-23T04:25:18.982Z,17.97
2018-11-23T04:27:48.601Z,19.00
2018-11-23T04:30:18.827Z,18.03
2018-11-23T04:32:48.875Z,18.43
2018-11-23T04:35:19.488Z,18.80
2018-11-23T04:37:49.532Z,19.43
2018-11-23T04:40:19.936Z,22.20
2018-11-23T04:42:49.510Z,20.63
2018-11-23T04:45:19.543Z,18.67
2018-11-23T04:47:49.134Z,20.23
2018-11-23T04:50:18.963Z,16.60
2018-11-23T04:52:48.991Z,19.17
2018-11-23T04:55:18.370Z,20.60
2018-11-23T04:57:53.675Z,18.80
2018-11-23T05:00:18.539Z,24.00
2018-11-23T05:02:48.356Z,74.70
2018-11-23T05:05:17.604Z,22.57
2018-11-23T05:07:48.074Z,23.23
2018-11-23T05:10:18.221Z,20.20
2018-11-23T05:12:47.973Z,20.07
2018-11-23T05:15:18.594Z,20.83
2018-11-23T05:17:48.542Z,20.03
2018-11-23T05:20:18.078Z,21.10
2018-11-23T05:22:47.496Z,25.17
2018-11-23T05:25:18.175Z,23.77
2018-11-23T05:27:47.929Z,19.33
2018-11-23T05:30:20.062Z,20.23
2018-11-23T05:32:49.815Z,18.70
2018-11-23T05:35:19.909Z,15.13
2018-11-23T05:37:49.146Z,17.37
2018-11-23T05:40:20.431Z,15.03
2018-11-23T05:42:50.504Z,15.10
2018-11-23T05:45:21.678Z,15.77
2018-11-23T05:47:51.217Z,16.23
2018-11-23T05:50:25.679Z,19.70
2018-11-23T05:52:55.417Z,18.23
2018-11-23T05:55:25.287Z,16.53
2018-11-23T05:57:55.108Z,18.13
2018-11-23T06:00:27.911Z,31.30
2018-11-23T06:02:57.496Z,24.50
2018-11-23T06:05:27.007Z,19.23
2018-11-23T06:07:56.436Z,17.90
2018-11-23T06:10:26.305Z,18.83
2018-11-23T06:12:55.740Z,17.60
2018-11-23T06:15:25.934Z,16.33
2018-11-23T06:17:55.446Z,17.23
2018-11-23T06:20:26.075Z,18.20
2018-11-23T06:22:56.247Z,16.97
2018-11-23T06:25:32.545Z,16.63
2018-11-23T06:28:02.243Z,16.47
2018-11-23T06:30:31.935Z,14.73
2018-11-23T06:33:12.662Z,15.90
2018-11-23T06:35:41.982Z,18.87
2018-11-23T06:38:11.271Z,19.47
2018-11-23T06:40:40.953Z,21.17
2018-11-23T06:43:10.525Z,18.80
2018-11-23T06:45:41.790Z,17.67
2018-11-23T06:48:11.908Z,18.63
2018-11-23T06:50:41.467Z,21.70
2018-11-23T06:53:11.515Z,23.07
2018-11-23T06:55:41.035Z,22.37
2018-11-23T06:58:10.692Z,20.17
2018-11-23T07:00:40.269Z,20.90
2018-11-23T07:03:09.967Z,18.93
2018-11-23T07:05:39.820Z,19.60
2018-11-23T07:08:10.218Z,19.37
2018-11-23T07:10:39.554Z,17.50
2018-11-23T07:13:10.053Z,18.27
2018-11-23T07:15:40.184Z,18.43
2018-11-23T07:18:10.201Z,22.13
2018-11-23T07:20:40.570Z,22.63
2018-11-23T07:23:10.098Z,21.83
2018-11-23T07:25:39.960Z,22.20
2018-11-23T07:28:15.428Z,25.40
2018-11-23T07:30:39.399Z,25.03
2018-11-23T07:33:09.034Z,25.07
2018-11-23T07:35:39.677Z,22.83
2018-11-23T07:38:09.860Z,22.47
2018-11-23T07:40:51.115Z,25.33
2018-11-23T07:43:20.938Z,28.03
2018-11-23T07:45:50.603Z,34.17
2018-11-23T07:48:20.177Z,34.97
2018-11-23T07:50:49.659Z,32.67
2018-11-23T07:53:19.203Z,33.23
2018-11-23T07:55:48.665Z,30.57
2018-11-23T07:58:18.455Z,39.53
2018-11-23T08:00:48.419Z,41.77
2018-11-23T08:03:17.933Z,40.73
2018-11-23T08:05:47.683Z,39.83
2018-11-23T08:08:17.169Z,36.90
2018-11-23T08:10:45.559Z,27.17
2018-11-23T08:13:15.011Z,25.87
2018-11-23T08:15:44.911Z,25.50
2018-11-23T08:18:14.543Z,22.10
2018-11-23T08:20:44.743Z,24.87
2018-11-23T08:23:14.104Z,23.37
2018-11-23T08:25:43.640Z,24.23
2018-11-23T08:28:13.278Z,20.73
2018-11-23T08:30:42.735Z,22.53
2018-11-23T08:33:12.475Z,24.17
2018-11-23T08:35:42.108Z,24.47
2018-11-23T08:38:11.535Z,23.67
2018-11-23T08:40:40.846Z,24.33
2018-11-23T08:43:10.606Z,21.73
2018-11-23T08:45:39.947Z,25.07
2018-11-23T08:48:09.528Z,20.77
2018-11-23T08:50:39.411Z,19.77
2018-11-23T08:53:09.206Z,20.87
2018-11-23T08:55:39.155Z,28.07
2018-11-23T08:58:08.945Z,29.73
2018-11-23T09:00:38.456Z,31.20
2018-11-23T09:03:08.500Z,34.30
2018-11-23T09:05:38.090Z,30.63
2018-11-23T09:08:07.428Z,31.77
2018-11-23T09:10:36.720Z,32.37
2018-11-23T09:13:06.103Z,31.80
2018-11-23T09:15:35.493Z,35.13
2018-11-23T09:18:05.337Z,36.77
2018-11-23T09:20:35.084Z,39.53
2018-11-23T09:23:04.638Z,42.70
2018-11-23T09:25:34.870Z,39.97
2018-11-23T09:28:04.483Z,37.80
2018-11-23T09:30:34.291Z,39.37
2018-11-23T09:33:03.889Z,42.10
2018-11-23T09:35:33.289Z,42.97
2018-11-23T09:38:03.187Z,42.77
2018-11-23T09:40:32.591Z,43.73
2018-11-23T09:43:01.989Z,42.23
2018-11-23T09:45:32.991Z,40.93
2018-11-23T09:48:03.777Z,40.30
2018-11-23T09:50:34.022Z,40.90
2018-11-23T09:53:04.649Z,41.90
2018-11-23T09:55:35.963Z,42.40
2018-11-23T09:58:05.743Z,44.67
2018-11-23T10:00:36.833Z,40.10
2018-11-23T10:03:07.398Z,40.73
2018-11-23T10:05:37.227Z,42.13
2018-11-23T10:08:07.926Z,42.53
2018-11-23T10:10:37.343Z,42.37
2018-11-23T10:13:06.818Z,42.93
2018-11-23T10:15:36.183Z,44.67
2018-11-23T10:18:05.857Z,41.50
2018-11-23T10:20:36.198Z,35.53
2018-11-23T10:23:05.975Z,34.23
2018-11-23T10:25:36.212Z,33.77
2018-11-23T10:28:05.904Z,35.50
2018-11-23T10:30:36.352Z,33.17
2018-11-23T10:33:07.410Z,39.50
2018-11-23T10:35:36.931Z,42.70
2018-11-23T10:38:07.165Z,48.87
2018-11-23T10:40:38.269Z,39.60
2018-11-23T10:43:08.161Z,52.87
2018-11-23T10:45:37.888Z,50.63
2018-11-23T10:48:08.840Z,66.00
2018-11-23T10:50:39.923Z,63.10
2018-11-23T10:53:09.482Z,64.50
2018-11-23T10:55:39.822Z,61.47
2018-11-23T10:58:09.483Z,62.60
2018-11-23T11:00:44.458Z,68.17
2018-11-23T11:03:35.024Z,64.57
2018-11-23T11:06:11.705Z,61.90
2018-11-23T11:08:41.699Z,58.47
2018-11-23T11:11:13.783Z,62.93
2018-11-23T11:13:41.423Z,55.50
2018-11-23T11:16:10.811Z,56.17
2018-11-23T11:18:40.119Z,59.07
2018-11-23T11:21:09.995Z,57.60
2018-11-23T11:23:39.587Z,53.63
2018-11-23T11:26:09.148Z,52.50
2018-11-23T11:28:39.158Z,52.53
2018-11-23T11:31:08.955Z,56.03
2018-11-23T11:33:38.559Z,58.63
2018-11-23T11:36:07.936Z,54.27
2018-11-23T11:38:37.557Z,56.87
2018-11-23T11:41:07.488Z,55.63
2018-11-23T11:43:37.221Z,56.40
2018-11-23T11:46:06.755Z,50.80
2018-11-23T11:48:36.419Z,51.27
2018-11-23T11:51:06.649Z,50.23
2018-11-23T11:53:36.855Z,48.97
2018-11-23T11:56:06.894Z,45.97
2018-11-23T11:58:36.367Z,45.03
2018-11-23T12:01:06.208Z,45.63
2018-11-23T12:03:35.869Z,49.13
2018-11-23T12:06:05.719Z,47.97
2018-11-23T12:08:35.171Z,46.80
2018-11-23T12:11:05.069Z,46.40
2018-11-23T12:13:34.546Z,46.90
2018-11-23T12:16:03.936Z,44.57
2018-11-23T12:18:33.391Z,47.03
2018-11-23T12:21:03.368Z,42.67
2018-11-23T12:23:32.999Z,43.23
2018-11-23T12:26:02.578Z,43.50
2018-11-23T12:28:32.189Z,42.80
2018-11-23T12:31:01.808Z,43.27
2018-11-23T12:33:31.417Z,43.17
2018-11-23T12:36:01.144Z,42.73
2018-11-23T12:38:30.658Z,40.17
2018-11-23T12:41:00.266Z,43.03
2018-11-23T12:43:29.776Z,43.47
2018-11-23T12:45:59.213Z,44.67
2018-11-23T12:48:28.547Z,44.83
2018-11-23T12:50:57.996Z,43.67
2018-11-23T12:53:27.695Z,41.97
2018-11-23T12:55:57.491Z,42.67
2018-11-23T12:58:27.002Z,44.33
2018-11-23T13:00:56.371Z,46.47
2018-11-23T13:03:25.742Z,48.20
2018-11-23T13:05:55.398Z,43.90
2018-11-23T13:08:24.822Z,44.53
2018-11-23T13:10:54.704Z,42.73
2018-11-23T13:13:24.474Z,43.73
2018-11-23T13:15:54.340Z,44.37
2018-11-23T13:18:23.620Z,44.70
2018-11-23T13:20:52.965Z,46.17
2018-11-23T13:23:22.354Z,43.63
2018-11-23T13:25:51.980Z,45.90
2018-11-23T13:28:21.535Z,42.23
2018-11-23T13:30:51.002Z,41.17
2018-11-23T13:33:20.397Z,43.83
2018-11-23T13:35:49.735Z,42.77
2018-11-23T13:38:19.604Z,44.23
2018-11-23T13:40:48.968Z,43.33
2018-11-23T13:43:18.881Z,41.47
2018-11-23T13:45:48.727Z,43.13
2018-11-23T13:48:20.001Z,44.60
2018-11-23T13:50:47.586Z,336.90
2018-11-23T13:53:16.946Z,75.57
2018-11-23T13:55:46.630Z,49.63
2018-11-23T13:58:16.043Z,43.73
2018-11-23T14:00:45.791Z,46.13
2018-11-23T14:03:15.553Z,44.57
2018-11-23T14:05:45.048Z,46.00
2018-11-23T14:08:14.366Z,45.10
2018-11-23T14:10:43.970Z,44.47
2018-11-23T14:13:13.308Z,43.00
2018-11-23T14:15:42.847Z,40.43
2018-11-23T14:18:12.567Z,41.63
2018-11-23T14:20:41.968Z,41.50
2018-11-23T14:23:11.462Z,40.77
2018-11-23T14:25:40.773Z,42.57
2018-11-23T14:28:11.327Z,45.37
2018-11-23T14:30:40.933Z,44.73
2018-11-23T14:33:10.549Z,39.50
2018-11-23T14:35:40.311Z,36.13
2018-11-23T14:38:10.039Z,35.37
2018-11-23T14:40:39.715Z,37.40
2018-11-23T14:43:09.290Z,35.23
2018-11-23T14:45:38.832Z,36.73
2018-11-23T14:48:09.409Z,36.67
2018-11-23T14:50:44.004Z,37.17
2018-11-23T14:53:13.451Z,35.03
2018-11-23T14:55:42.799Z,36.87
2018-11-23T14:58:12.685Z,35.70
2018-11-23T15:00:42.539Z,38.03
2018-11-23T15:03:12.518Z,33.27
2018-11-23T15:05:42.259Z,33.77
2018-11-23T15:08:11.708Z,33.63
2018-11-23T15:10:41.488Z,34.37
2018-11-23T15:13:10.819Z,33.07
2018-11-23T15:15:41.198Z,35.20
2018-11-23T15:18:11.121Z,34.50
2018-11-23T15:20:43.903Z,33.43
2018-11-23T15:23:16.974Z,31.67
2018-11-23T15:25:46.580Z,32.97
2018-11-23T15:28:16.495Z,32.10
2018-11-23T15:30:46.698Z,34.33
2018-11-23T15:33:17.562Z,33.60
2018-11-23T15:35:47.443Z,35.67
2018-11-23T15:38:18.463Z,34.70
2018-11-23T15:40:48.355Z,37.10
2018-11-23T15:43:18.647Z,37.10
2018-11-23T15:45:48.059Z,36.43
2018-11-23T15:48:17.482Z,42.93
2018-11-23T15:50:47.051Z,41.40
2018-11-23T15:53:17.206Z,43.10
2018-11-23T15:55:46.964Z,38.87
2018-11-23T15:58:17.945Z,38.27
2018-11-23T16:00:48.655Z,35.30
2018-11-23T16:03:18.511Z,38.37
2018-11-23T16:05:48.051Z,37.40
2018-11-23T16:08:19.390Z,35.67
2018-11-23T16:10:48.928Z,36.17
2018-11-23T16:13:18.943Z,38.13
2018-11-23T16:15:48.458Z,38.07
2018-11-23T16:18:17.909Z,40.77
2018-11-23T16:20:47.764Z,51.00
2018-11-23T16:23:18.967Z,52.60
2018-11-23T16:25:49.395Z,57.23
2018-11-23T16:28:18.917Z,56.70
2018-11-23T16:30:49.799Z,56.93
2018-11-23T16:33:21.627Z,58.07
2018-11-23T16:35:51.611Z,70.73
2018-11-23T16:38:22.603Z,59.67
2018-11-23T16:40:55.419Z,58.73
2018-11-23T16:43:25.286Z,53.87
2018-11-23T16:45:54.825Z,53.23
2018-11-23T16:48:24.659Z,54.00
2018-11-23T16:50:54.135Z,59.70
2018-11-23T16:53:23.755Z,63.23
2018-11-23T16:55:53.208Z,61.87
2018-11-23T16:58:22.650Z,70.07
2018-11-23T17:00:52.456Z,58.50
2018-11-23T17:03:22.935Z,61.27
2018-11-23T17:05:53.872Z,62.43
2018-11-23T17:08:23.463Z,61.10
2018-11-23T17:10:53.045Z,71.67
2018-11-23T17:13:22.751Z,59.67
2018-11-23T17:15:52.571Z,55.63
2018-11-23T17:18:22.184Z,79.70
2018-11-23T17:20:52.087Z,75.80
2018-11-23T17:23:21.712Z,57.13
2018-11-23T17:25:51.442Z,55.23
2018-11-23T17:28:20.939Z,56.50
2018-11-23T17:30:50.809Z,53.93
2018-11-23T17:33:20.292Z,58.57
2018-11-23T17:35:49.782Z,59.13
2018-11-23T17:38:19.296Z,59.83
2018-11-23T17:40:49.172Z,80.93
2018-11-23T17:43:18.752Z,68.80
2018-11-23T17:45:48.255Z,63.83
2018-11-23T17:48:17.827Z,68.57
2018-11-23T17:50:47.231Z,64.80
2018-11-23T17:53:16.802Z,61.37
2018-11-23T17:55:46.507Z,57.03
2018-11-23T17:58:16.320Z,55.37
2018-11-23T18:00:45.857Z,60.17
2018-11-23T18:03:15.770Z,55.77
2018-11-23T18:05:45.191Z,57.43
2018-11-23T18:08:14.986Z,58.77
2018-11-23T18:10:44.848Z,70.53
2018-11-23T18:13:14.186Z,63.67
2018-11-23T18:15:43.935Z,59.90
2018-11-23T18:18:13.606Z,63.13
2018-11-23T18:20:43.003Z,66.70
2018-11-23T18:23:12.700Z,61.23
2018-11-23T18:25:42.164Z,64.23
2018-11-23T18:28:11.978Z,62.87
2018-11-23T18:30:41.331Z,68.97
2018-11-23T18:33:10.870Z,84.67
2018-11-23T18:35:40.235Z,91.37
2018-11-23T18:38:09.618Z,88.37
2018-11-23T18:40:38.992Z,79.67
2018-11-23T18:43:08.557Z,90.97
2018-11-23T18:45:38.278Z,106.07
2018-11-23T18:48:08.271Z,105.70
2018-11-23T18:50:37.869Z,113.97
2018-11-23T18:53:07.282Z,112.90
2018-11-23T18:55:36.852Z,118.50
2018-11-23T18:58:06.423Z,138.70
2018-11-23T19:00:36.368Z,154.50
2018-11-23T19:03:06.140Z,142.90
2018-11-23T19:05:35.445Z,100.73
2018-11-23T19:08:04.820Z,97.27
2018-11-23T19:10:34.236Z,82.33
2018-11-23T19:13:04.068Z,88.13
2018-11-23T19:15:33.690Z,85.97
2018-11-23T19:18:03.416Z,83.33
2018-11-23T19:20:33.084Z,83.30
2018-11-23T19:23:03.035Z,89.40
2018-11-23T19:25:32.929Z,87.67
2018-11-23T19:28:02.461Z,83.70
2018-11-23T19:30:31.932Z,85.77
2018-11-23T19:33:01.684Z,85.53
2018-11-23T19:35:31.091Z,83.83
2018-11-23T19:38:00.522Z,81.00
2018-11-23T19:40:29.927Z,77.60
2018-11-23T19:42:59.556Z,76.40
2018-11-23T19:45:29.128Z,74.43
2018-11-23T19:47:58.623Z,70.10
2018-11-23T19:50:28.375Z,71.10
2018-11-23T19:52:58.355Z,70.40
2018-11-23T19:55:30.359Z,68.17
2018-11-23T19:58:00.203Z,59.60
2018-11-23T20:00:30.011Z,61.83
2018-11-23T20:02:59.579Z,56.67
2018-11-23T20:05:29.023Z,54.13
2018-11-23T20:07:58.520Z,50.93
2018-11-23T20:10:27.826Z,50.37
2018-11-23T20:12:58.210Z,51.70
2018-11-23T20:15:27.690Z,56.60
2018-11-23T20:17:57.067Z,58.80
2018-11-23T20:20:26.842Z,58.97
2018-11-23T20:22:56.303Z,59.20
2018-11-23T20:25:26.081Z,62.87
2018-11-23T20:27:55.644Z,57.63
2018-11-23T20:30:25.381Z,55.07
2018-11-23T20:32:54.879Z,65.13
2018-11-23T20:35:24.419Z,78.03
2018-11-23T20:37:53.829Z,89.47
2018-11-23T20:40:24.408Z,70.03
2018-11-23T20:42:54.307Z,59.93
2018-11-23T20:45:23.855Z,61.93
2018-11-23T20:47:53.576Z,61.43
2018-11-23T20:50:23.221Z,63.03
2018-11-23T20:52:52.791Z,61.93
2018-11-23T20:55:22.863Z,74.13
2018-11-23T20:57:52.376Z,73.63
2018-11-23T21:00:22.471Z,70.00
2018-11-23T21:02:52.775Z,74.10
2018-11-23T21:05:22.602Z,72.47
2018-11-23T21:07:52.212Z,80.33
2018-11-23T21:10:24.815Z,78.57
2018-11-23T21:12:55.157Z,83.67
2018-11-23T21:15:28.920Z,80.30
2018-11-23T21:18:01.571Z,72.50
2018-11-23T21:20:30.751Z,77.47
2018-11-23T21:23:00.328Z,79.27
2018-11-23T21:25:29.891Z,78.90
2018-11-23T21:27:59.328Z,81.93
2018-11-23T21:30:28.851Z,78.90
2018-11-23T21:32:58.544Z,77.10
2018-11-23T21:35:27.847Z,78.87
2018-11-23T21:37:57.204Z,79.50
2018-11-23T21:40:26.795Z,69.37
2018-11-23T21:42:56.147Z,70.43
2018-11-23T21:45:25.838Z,75.83
2018-11-23T21:47:55.257Z,74.00
2018-11-23T21:50:25.911Z,73.83
2018-11-23T21:52:54.559Z,79.27
2018-11-23T21:55:24.963Z,81.23
2018-11-23T21:57:55.724Z,76.23
2018-11-23T22:00:25.367Z,89.50
2018-11-23T22:02:55.020Z,71.20
2018-11-23T22:05:24.488Z,70.83
2018-11-23T22:07:53.926Z,63.93
2018-11-23T22:10:23.459Z,63.30
2018-11-23T22:12:52.799Z,62.77
2018-11-23T22:15:23.588Z,57.57
2018-11-23T22:17:54.158Z,51.80
2018-11-23T22:20:24.214Z,53.03
2018-11-23T22:22:53.947Z,54.37
2018-11-23T22:25:24.104Z,55.23
2018-11-23T22:27:54.026Z,51.30
2018-11-23T22:30:28.502Z,47.27
2018-11-23T22:32:57.981Z,47.23
2018-11-23T22:35:28.214Z,47.87
2018-11-23T22:37:57.592Z,45.80
2018-11-23T22:40:27.133Z,48.57
2018-11-23T22:42:57.887Z,47.77
2018-11-23T22:45:27.635Z,46.57
2018-11-23T22:47:56.943Z,44.13
2018-11-23T22:50:26.648Z,45.20
2018-11-23T22:52:55.899Z,29.63
2018-11-23T22:55:25.226Z,23.00
2018-11-23T22:57:54.769Z,22.53
2018-11-23T23:00:31.469Z,21.17
2018-11-23T23:03:00.836Z,20.83
2018-11-23T23:05:30.198Z,20.03
2018-11-23T23:07:59.490Z,19.17
2018-11-23T23:10:29.095Z,17.87
2018-11-23T23:12:58.851Z,16.53
2018-11-23T23:15:28.431Z,17.33
2018-11-23T23:17:57.861Z,16.93
2018-11-23T23:20:27.635Z,16.27
2018-11-23T23:22:57.172Z,13.87
2018-11-23T23:25:26.797Z,14.47
2018-11-23T23:27:56.152Z,13.27
2018-11-23T23:30:25.536Z,12.83
2018-11-23T23:32:55.002Z,13.57
2018-11-23T23:35:24.433Z,13.73
2018-11-23T23:37:54.318Z,12.23
2018-11-23T23:40:23.849Z,12.47
2018-11-23T23:42:53.804Z,12.03
2018-11-23T23:45:23.200Z,10.97
2018-11-23T23:47:53.044Z,9.70
2018-11-23T23:50:23.213Z,9.87
2018-11-23T23:52:52.800Z,11.60
2018-11-23T23:55:22.367Z,11.40
2018-11-23T23:57:52.002Z,11.13
